Flight Track Log - Related Links

Times and Time Zones

All times are in EDT time to prevent confusion due to time zone crossing. See the AWE1940 flight status page for this flight to view local times or setup timezone preferences in your user account.

Time Position Orientation Groundspeed Altitude Reporting Facility
EDT Latitude Longitude Course Direction KTS MPH feet Rate Location/Type
Sun 10:20:13 PM 35.1928 -80.9356 72° East 163 188 1,700  Level Atlanta Center
Sun 10:21:26 PM 35.1336 -80.8972 152° Southeast 255 293 4,100 2,453 Climbing Atlanta Center
Sun 10:22:52 PM 35.1719 -80.7764 69° East 290 334 8,200 2,753 Climbing Atlanta Center
Sun 10:23:00 PM 35.2194 -80.5528 30° Northeast  Level FlightAware Approximate
Sun 10:23:52 PM 35.2092 -80.6858 63° Northeast 290 334 10,800  Level Atlanta Center
Sun 10:24:00 PM 35.3167 -80.4826 90° East  Level FlightAware Approximate
Sun 10:25:00 PM 35.3591 -80.3691 72° East  Level FlightAware Approximate
Sun 10:26:02 PM 35.3039 -80.4531 63° Northeast 352 405 16,000  Level Washington Center
Sun 10:27:02 PM 35.3525 -80.3364 63° Northeast 370 426 18,500 2,269 Climbing Washington Center
Sun 10:28:01 PM 35.3964 -80.2294 63° Northeast 376 433 20,500 2,200 Climbing Washington Center
Sun 10:29:02 PM 35.4431 -80.1022 66° East 396 456 22,900 2,164 Climbing Washington Center
Sun 10:30:03 PM 35.4817 -79.9589 72° East 401 461 24,900 1,866 Climbing Washington Center
Sun 10:31:01 PM 35.5158 -79.8178 73° East 407 468 26,600 1,550 Climbing Washington Center
Sun 10:32:03 PM 35.5522 -79.6717 73° East 424 488 28,000 1,450 Climbing Washington Center
Sun 10:33:01 PM 35.5931 -79.5156 72° East 461 531 29,500 1,424 Climbing Washington Center
Sun 10:34:01 PM 35.6394 -79.3719 68° East 467 537 30,800 1,537 Climbing Washington Center
Sun 10:35:02 PM 35.6983 -79.2239 64° Northeast 467 537 32,600 1,091 Climbing Washington Center
Sun 10:36:02 PM 35.7567 -79.0808 63° Northeast 467 537 33,000 198 Climbing Washington Center
Sun 10:37:03 PM 35.8172 -78.9347 63° Northeast 467 537 33,000  Level Washington Center
Sun 10:38:01 PM 35.8756 -78.7886 64° Northeast 467 537 33,000  Level Washington Center
Sun 10:39:02 PM 35.9439 -78.6478 59° Northeast 467 537 33,000  Level Washington Center
Sun 10:40:01 PM 36.0100 -78.5117 59° Northeast 467 537 33,000  Level Washington Center
Sun 10:41:02 PM 36.0781 -78.3703 59° Northeast 467 537 33,000  Level Washington Center
Sun 10:42:02 PM 36.1436 -78.2308 60° Northeast 467 537 33,000  Level Washington Center
Sun 10:43:02 PM 36.2114 -78.0892 59° Northeast 467 537 33,000  Level Washington Center
Sun 10:44:03 PM 36.2703 -77.9647 60° Northeast 461 531 33,000  Level Washington Center
Sun 10:45:01 PM 36.3378 -77.8250 59° Northeast 461 531 33,000  Level Washington Center
Sun 10:46:02 PM 36.4028 -77.6850 60° Northeast 461 531 33,000  Level Washington Center
Sun 10:47:02 PM 36.4678 -77.5419 61° Northeast 466 536 33,000  Level Washington Center
Sun 10:48:01 PM 36.5325 -77.4014 60° Northeast 466 536 33,000  Level Washington Center
Sun 10:49:01 PM 36.6014 -77.2608 59° Northeast 466 536 33,000  Level Washington Center
Sun 10:50:03 PM 36.6658 -77.1144 61° Northeast 466 536 33,000  Level Washington Center
Sun 10:51:01 PM 36.7447 -76.9864 52° Northeast 466 536 33,000  Level Washington Center
Sun 10:52:01 PM 36.8500 -76.8897 36° Northeast 461 531 33,000  Level Washington Center
Sun 10:53:03 PM 36.9575 -76.7900 37° Northeast 461 531 33,000  Level Washington Center
Sun 10:54:03 PM 37.0689 -76.7033 32° Northeast 468 539 33,000  Level Washington Center
Sun 10:55:01 PM 37.1989 -76.6114 29° Northeast 473 544 33,000  Level Washington Center
Sun 10:56:03 PM 37.3122 -76.5267 31° Northeast 473 544 33,000  Level Washington Center
Sun 10:57:04 PM 37.4278 -76.4444 29° Northeast 473 544 33,000  Level Washington Center
Sun 10:58:03 PM 37.5408 -76.3644 29° Northeast 468 539 33,000  Level Washington Center
Sun 10:59:01 PM 37.6539 -76.2817 30° Northeast 468 539 33,000  Level Washington Center
Sun 11:00:02 PM 37.7442 -76.2142 31° Northeast 468 539 33,000  Level Washington Center
Sun 11:01:01 PM 37.8781 -76.1153 30° Northeast 463 533 33,000  Level Washington Center
Sun 11:02:03 PM 37.9908 -76.0317 30° Northeast 463 533 33,000  Level Washington Center
Sun 11:03:03 PM 38.1017 -75.9506 30° Northeast 463 533 33,000  Level Washington Center
Sun 11:04:03 PM 38.2167 -75.8667 30° Northeast 468 539 33,000  Level Washington Center
Sun 11:05:03 PM 38.3294 -75.7797 31° Northeast 462 532 33,000  Level Washington Center
Sun 11:06:02 PM 38.4419 -75.7003 29° Northeast 462 532 33,000 -51 Level Washington Center
Sun 11:07:01 PM 38.5547 -75.6156 30° Northeast 462 532 32,900  Descending Washington Center
Sun 11:08:01 PM 38.6653 -75.5331 30° Northeast 462 532 33,000 49 Climbing Washington Center
Sun 11:09:04 PM 38.7797 -75.4478 30° Northeast 468 539 33,000  Level Washington Center
Sun 11:10:01 PM 38.8900 -75.3597 32° Northeast 468 539 33,000  Level Washington Center
Sun 11:11:01 PM 39.0044 -75.2764 29° Northeast 468 539 33,000 -49 Level Washington Center
Sun 11:12:03 PM 39.1169 -75.1903 31° Northeast 468 539 32,900  Descending Washington Center
Sun 11:13:03 PM 39.2292 -75.1014 32° Northeast 468 539 33,000 33 Climbing Washington Center
Sun 11:15:04 PM 39.4586 -74.9253 31° Northeast 473 544 33,000  Level New York Center
Sun 11:16:05 PM 39.5703 -74.8347 32° Northeast 473 544 33,000  Level New York Center
Sun 11:17:05 PM 39.6817 -74.7494 30° Northeast 467 537 33,000  Level New York Center
Sun 11:18:04 PM 39.7953 -74.6586 32° Northeast 467 537 33,000  Level New York Center
Sun 11:19:04 PM 39.9028 -74.6161 17° North 448 516 33,000  Level New York Center
Sun 11:20:03 PM 40.0353 -74.5800 12° North 437 503 33,000  Level New York Center
Sun 11:21:03 PM 40.1447 -74.5533 11° North 437 503 33,000  Level New York Center
Sun 11:22:05 PM 40.2667 -74.5139 14° North 432 497 33,000 -50 Level New York Center
Sun 11:23:03 PM 40.3886 -74.4794 12° North 437 503 32,900 -575 Descending New York Center
Sun 11:24:52 PM 40.6094 -74.4167 12° North 444 511 31,400 -888 Descending Boston Center
Sun 11:25:52 PM 40.7311 -74.3819 12° North 449 517 30,400 -1,000 Descending Boston Center
Sun 11:26:52 PM 40.8525 -74.3525 10° North 447 514 29,400 -992 Descending Boston Center
Sun 11:27:53 PM 40.9717 -74.3231 11° North 435 501 28,400 -1,000 Descending Boston Center
Sun 11:28:52 PM 41.0869 -74.2881 13° North 429 494 27,400 -992 Descending Boston Center
Sun 11:29:54 PM 41.2019 -74.2553 12° North 423 487 26,400 -689 Descending Boston Center
Sun 11:30:54 PM 41.3236 -74.2175 13° North 413 475 26,000 -254 Descending Boston Center
Sun 11:31:52 PM 41.4325 -74.1872 12° North 408 470 25,900 -1,815 Descending Boston Center
Sun 11:32:53 PM 41.5286 -74.1592 12° North 392 451 22,400 -3,300 Descending Boston Center
Sun 11:33:52 PM 41.6417 -74.1261 12° North 398 458 19,300 -2,579 Descending Boston Center
Sun 11:34:54 PM 41.7547 -74.0958 11° North 385 443 17,200 -1,983 Descending Boston Center
Sun 11:35:53 PM 41.8258 -74.0756 12° North 378 435 15,300 -2,523 Descending Boston Center
Sun 11:36:41 PM 41.9389 -74.0450 11° North 364 419 12,700 -2,609 Descending Boston Center
Sun 11:37:25 PM 42.0081 -74.0214 14° North 354 407 11,300 -1,214 Descending Boston Center
Sun 11:38:05 PM 42.0708 -74.0036 12° North 352 405 11,000 -240 Descending Boston Center
Sun 11:39:05 PM 42.1481 -73.9803 13° North 330 380 10,900 -942 Descending Boston Center
Sun 11:40:06 PM 42.2319 -73.9486 16° North 292 336 9,100 -1,650 Descending Boston Center
Sun 11:41:05 PM 42.3031 -73.9278 12° North 278 320 7,600 -1,462 Descending Boston Center
Sun 11:42:05 PM 42.3847 -73.8989 15° North 278 320 6,200 -1,456 Descending Boston Center
Sun 11:43:21 PM 42.4789 -73.8644 15° North 264 304 4,300 -1,190 Descending Boston Center
Sun 11:44:06 PM 42.5250 -73.8458 17° North 259 298 3,800 -857 Descending Boston Center
Sun 11:45:06 PM 42.5817 -73.8275 13° North 238 274 2,800 -793 Descending Boston Center
Sun 11:46:07 PM 42.6506 -73.8064 13° North 232 267 2,200 -788 Descending Boston Center
Sun 11:47:23 PM 42.7028 -73.8075 359° North 140 161 1,000 -947 Descending Boston Center

Login

Don't have an account? Register now (free) for customized features, flight alerts, and more!